sensor_id;sensor_type;location;lat;lon;timestamp;pressure;altitude;pressure_sealevel;temperature;humidity
13732;BME280;6937;56.096;12.664;2023-01-29T00:01:04;101383.13;;;4.85;100.00
13732;BME280;6937;56.096;12.664;2023-01-29T00:03:30;101384.06;;;4.84;100.00
13732;BME280;6937;56.096;12.664;2023-01-29T00:05:55;101388.44;;;4.85;100.00
13732;BME280;6937;56.096;12.664;2023-01-29T00:08:21;101395.59;;;4.83;100.00
13732;BME280;6937;56.096;12.664;2023-01-29T00:10:46;101371.97;;;4.77;100.00
13732;BME280;6937;56.096;12.664;2023-01-29T00:13:12;101376.19;;;4.82;100.00
13732;BME280;6937;56.096;12.664;2023-01-29T00:15:38;101386.09;;;4.77;100.00
13732;BME280;6937;56.096;12.664;2023-01-29T00:18:03;101370.94;;;4.81;100.00
13732;BME280;6937;56.096;12.664;2023-01-29T00:20:29;101367.31;;;4.83;100.00
13732;BME280;6937;56.096;12.664;2023-01-29T00:22:54;101372.50;;;4.86;100.00
13732;BME280;6937;56.096;12.664;2023-01-29T00:25:20;101366.56;;;4.80;100.00
13732;BME280;6937;56.096;12.664;2023-01-29T00:27:45;101365.59;;;4.82;100.00
13732;BME280;6937;56.096;12.664;2023-01-29T00:30:11;101363.72;;;4.84;100.00
13732;BME280;6937;56.096;12.664;2023-01-29T00:32:38;101366.34;;;4.86;100.00
13732;BME280;6937;56.096;12.664;2023-01-29T00:35:05;101370.72;;;4.87;100.00
13732;BME280;6937;56.096;12.664;2023-01-29T00:37:31;101361.09;;;4.84;100.00
13732;BME280;6937;56.096;12.664;2023-01-29T00:39:56;101363.81;;;4.83;100.00
13732;BME280;6937;56.096;12.664;2023-01-29T00:42:21;101361.16;;;4.83;100.00
13732;BME280;6937;56.096;12.664;2023-01-29T00:45:06;101358.56;;;4.81;100.00
13732;BME280;6937;56.096;12.664;2023-01-29T00:47:31;101348.88;;;4.80;100.00
13732;BME280;6937;56.096;12.664;2023-01-29T00:50:08;101329.69;;;4.75;100.00
13732;BME280;6937;56.096;12.664;2023-01-29T00:52:34;101343.50;;;4.83;100.00
13732;BME280;6937;56.096;12.664;2023-01-29T00:55:03;101333.06;;;4.79;100.00
13732;BME280;6937;56.096;12.664;2023-01-29T00:57:30;101329.25;;;4.86;100.00
13732;BME280;6937;56.096;12.664;2023-01-29T00:59:56;101349.53;;;4.87;100.00
13732;BME280;6937;56.096;12.664;2023-01-29T01:02:23;101350.31;;;4.89;100.00
13732;BME280;6937;56.096;12.664;2023-01-29T01:05:24;101359.09;;;4.91;100.00
13732;BME280;6937;56.096;12.664;2023-01-29T01:07:51;101355.50;;;4.92;100.00
13732;BME280;6937;56.096;12.664;2023-01-29T01:10:28;101339.03;;;4.84;100.00
13732;BME280;6937;56.096;12.664;2023-01-29T01:13:05;101361.91;;;4.86;100.00
13732;BME280;6937;56.096;12.664;2023-01-29T01:15:34;101355.75;;;4.86;100.00
13732;BME280;6937;56.096;12.664;2023-01-29T01:18:00;101371.69;;;4.84;100.00
13732;BME280;6937;56.096;12.664;2023-01-29T01:20:28;101346.38;;;4.77;100.00
13732;BME280;6937;56.096;12.664;2023-01-29T01:22:54;101357.56;;;4.84;100.00
13732;BME280;6937;56.096;12.664;2023-01-29T01:25:20;101359.31;;;4.85;100.00
13732;BME280;6937;56.096;12.664;2023-01-29T01:27:46;101358.56;;;4.81;100.00
13732;BME280;6937;56.096;12.664;2023-01-29T01:30:14;101367.41;;;4.80;100.00
13732;BME280;6937;56.096;12.664;2023-01-29T01:32:41;101354.25;;;4.79;100.00
13732;BME280;6937;56.096;12.664;2023-01-29T01:35:07;101363.00;;;4.81;100.00
13732;BME280;6937;56.096;12.664;2023-01-29T01:37:33;101349.19;;;4.73;100.00
13732;BME280;6937;56.096;12.664;2023-01-29T01:40:04;101361.94;;;4.85;100.00
13732;BME280;6937;56.096;12.664;2023-01-29T01:42:37;101368.00;;;4.88;100.00
13732;BME280;6937;56.096;12.664;2023-01-29T01:45:04;101355.63;;;4.89;100.00
13732;BME280;6937;56.096;12.664;2023-01-29T01:47:38;101357.34;;;4.90;100.00
13732;BME280;6937;56.096;12.664;2023-01-29T01:50:14;101365.28;;;4.90;100.00
13732;BME280;6937;56.096;12.664;2023-01-29T01:52:46;101374.16;;;4.89;100.00
13732;BME280;6937;56.096;12.664;2023-01-29T01:55:16;101375.06;;;4.88;100.00
13732;BME280;6937;56.096;12.664;2023-01-29T01:57:44;101382.06;;;4.91;100.00
13732;BME280;6937;56.096;12.664;2023-01-29T02:00:14;101367.03;;;4.91;100.00
13732;BME280;6937;56.096;12.664;2023-01-29T02:02:43;101364.47;;;4.88;100.00
13732;BME280;6937;56.096;12.664;2023-01-29T02:05:33;101372.53;;;4.85;100.00
13732;BME280;6937;56.096;12.664;2023-01-29T02:08:42;101362.06;;;4.82;100.00
13732;BME280;6937;56.096;12.664;2023-01-29T02:11:27;101364.91;;;4.77;100.00
13732;BME280;6937;56.096;12.664;2023-01-29T02:13:54;101376.19;;;4.82;100.00
13732;BME280;6937;56.096;12.664;2023-01-29T02:16:20;101366.56;;;4.80;100.00
13732;BME280;6937;56.096;12.664;2023-01-29T02:18:46;101371.81;;;4.81;100.00
13732;BME280;6937;56.096;12.664;2023-01-29T02:21:28;101372.66;;;4.82;100.00
13732;BME280;6937;56.096;12.664;2023-01-29T02:29:52;101410.66;;;4.81;100.00
13732;BME280;6937;56.096;12.664;2023-01-29T02:32:43;101400.63;;;4.89;100.00
13732;BME280;6937;56.096;12.664;2023-01-29T02:35:28;101415.28;;;4.76;100.00
13732;BME280;6937;56.096;12.664;2023-01-29T02:38:10;101417.00;;;4.77;100.00
13732;BME280;6937;56.096;12.664;2023-01-29T02:40:45;101401.47;;;4.68;100.00
13732;BME280;6937;56.096;12.664;2023-01-29T02:46:14;101396.28;;;4.65;100.00
13732;BME280;6937;56.096;12.664;2023-01-29T02:51:40;101409.69;;;4.60;100.00
13732;BME280;6937;56.096;12.664;2023-01-29T02:54:16;101404.00;;;4.71;100.00
13732;BME280;6937;56.096;12.664;2023-01-29T02:56:51;101409.28;;;4.71;100.00
13732;BME280;6937;56.096;12.664;2023-01-29T02:59:22;101406.56;;;4.72;100.00
13732;BME280;6937;56.096;12.664;2023-01-29T03:01:56;101401.22;;;4.74;100.00
13732;BME280;6937;56.096;12.664;2023-01-29T03:04:30;101394.09;;;4.76;100.00
13732;BME280;6937;56.096;12.664;2023-01-29T03:07:00;101373.13;;;4.70;100.00
13732;BME280;6937;56.096;12.664;2023-01-29T03:09:38;101374.78;;;4.72;100.00
13732;BME280;6937;56.096;12.664;2023-01-29T03:12:12;101398.47;;;4.77;100.00
13732;BME280;6937;56.096;12.664;2023-01-29T03:15:00;101391.47;;;4.76;100.00
13732;BME280;6937;56.096;12.664;2023-01-29T03:17:45;101369.19;;;4.80;100.00
13732;BME280;6937;56.096;12.664;2023-01-29T03:20:16;101356.22;;;4.74;100.00
13732;BME280;6937;56.096;12.664;2023-01-29T03:22:45;101366.47;;;4.83;100.00
13732;BME280;6937;56.096;12.664;2023-01-29T03:25:14;101369.19;;;4.80;100.00
13732;BME280;6937;56.096;12.664;2023-01-29T03:28:00;101350.13;;;4.72;100.00
13732;BME280;6937;56.096;12.664;2023-01-29T03:30:56;101355.22;;;4.76;100.00
13732;BME280;6937;56.096;12.664;2023-01-29T03:33:48;101347.56;;;4.69;100.00
13732;BME280;6937;56.096;12.664;2023-01-29T03:36:31;101360.50;;;4.76;100.00
13732;BME280;6937;56.096;12.664;2023-01-29T03:39:06;101350.22;;;4.69;100.00
13732;BME280;6937;56.096;12.664;2023-01-29T03:41:35;101354.47;;;4.73;100.00
13732;BME280;6937;56.096;12.664;2023-01-29T03:44:13;101360.50;;;4.76;100.00
13732;BME280;6937;56.096;12.664;2023-01-29T03:46:51;101349.84;;;4.79;100.00
13732;BME280;6937;56.096;12.664;2023-01-29T03:52:03;101345.50;;;4.77;100.00
13732;BME280;6937;56.096;12.664;2023-01-29T03:54:43;101341.03;;;4.79;100.00
13732;BME280;6937;56.096;12.664;2023-01-29T03:57:32;101336.88;;;4.72;100.00
13732;BME280;6937;56.096;12.664;2023-01-29T04:00:13;101355.13;;;4.79;100.00
13732;BME280;6937;56.096;12.664;2023-01-29T04:02:50;101336.75;;;4.75;100.00
13732;BME280;6937;56.096;12.664;2023-01-29T04:05:19;101333.19;;;4.76;100.00
13732;BME280;6937;56.096;12.664;2023-01-29T04:07:51;101337.56;;;4.77;100.00
13732;BME280;6937;56.096;12.664;2023-01-29T04:10:22;101364.69;;;4.83;100.00
13732;BME280;6937;56.096;12.664;2023-01-29T04:12:54;101336.38;;;4.84;100.00
13732;BME280;6937;56.096;12.664;2023-01-29T04:15:23;101352.34;;;4.82;100.00
13732;BME280;6937;56.096;12.664;2023-01-29T04:17:52;101351.47;;;4.82;100.00
13732;BME280;6937;56.096;12.664;2023-01-29T04:20:19;101358.50;;;4.83;100.00
13732;BME280;6937;56.096;12.664;2023-01-29T04:22:48;101353.22;;;4.83;100.00
13732;BME280;6937;56.096;12.664;2023-01-29T04:25:21;101359.31;;;4.85;100.00
13732;BME280;6937;56.096;12.664;2023-01-29T04:30:42;101341.69;;;4.84;100.00
13732;BME280;6937;56.096;12.664;2023-01-29T04:38:42;101314.28;;;4.85;100.00
13732;BME280;6937;56.096;12.664;2023-01-29T04:41:16;101301.97;;;4.84;100.00
13732;BME280;6937;56.096;12.664;2023-01-29T04:46:30;101292.91;;;4.90;100.00
13732;BME280;6937;56.096;12.664;2023-01-29T04:49:05;101285.16;;;4.85;100.00
13732;BME280;6937;56.096;12.664;2023-01-29T04:51:43;101316.75;;;4.90;100.00
13732;BME280;6937;56.096;12.664;2023-01-29T04:54:24;101313.50;;;4.83;100.00
13732;BME280;6937;56.096;12.664;2023-01-29T04:59:39;101297.47;;;4.86;100.00
13732;BME280;6937;56.096;12.664;2023-01-29T05:02:08;101296.47;;;4.88;100.00
13732;BME280;6937;56.096;12.664;2023-01-29T05:04:36;101282.28;;;4.91;100.00
13732;BME280;6937;56.096;12.664;2023-01-29T05:07:05;101288.41;;;4.92;100.00
13732;BME280;6937;56.096;12.664;2023-01-29T05:09:32;101303.34;;;4.94;100.00
13732;BME280;6937;56.096;12.664;2023-01-29T05:11:59;101287.75;;;4.86;100.00
13732;BME280;6937;56.096;12.664;2023-01-29T05:14:26;101283.13;;;4.92;100.00
13732;BME280;6937;56.096;12.664;2023-01-29T05:16:55;101270.13;;;4.85;100.00
13732;BME280;6937;56.096;12.664;2023-01-29T05:19:22;101272.81;;;4.84;100.00
13732;BME280;6937;56.096;12.664;2023-01-29T05:21:48;101289.22;;;4.94;100.00
13732;BME280;6937;56.096;12.664;2023-01-29T05:24:20;101293.84;;;4.88;100.00
13732;BME280;6937;56.096;12.664;2023-01-29T05:26:47;101272.00;;;4.83;100.00
13732;BME280;6937;56.096;12.664;2023-01-29T05:29:32;101268.53;;;4.81;100.00
13732;BME280;6937;56.096;12.664;2023-01-29T05:31:58;101257.06;;;4.81;100.00
13732;BME280;6937;56.096;12.664;2023-01-29T05:34:23;101256.09;;;4.83;100.00
13732;BME280;6937;56.096;12.664;2023-01-29T05:36:49;101258.84;;;4.80;100.00
13732;BME280;6937;56.096;12.664;2023-01-29T05:39:14;101243.91;;;4.79;100.00
13732;BME280;6937;56.096;12.664;2023-01-29T05:41:40;101244.00;;;4.76;100.00
13732;BME280;6937;56.096;12.664;2023-01-29T05:44:05;101238.81;;;4.75;100.00
13732;BME280;6937;56.096;12.664;2023-01-29T05:46:31;101222.03;;;4.74;100.00
13732;BME280;6937;56.096;12.664;2023-01-29T05:48:56;101236.81;;;4.80;100.00
13732;BME280;6937;56.096;12.664;2023-01-29T05:51:22;101243.03;;;4.79;100.00
13732;BME280;6937;56.096;12.664;2023-01-29T05:53:47;101210.53;;;4.75;100.00
13732;BME280;6937;56.096;12.664;2023-01-29T05:56:13;101219.13;;;4.80;100.00
13732;BME280;6937;56.096;12.664;2023-01-29T05:58:38;101216.31;;;4.85;100.00
13732;BME280;6937;56.096;12.664;2023-01-29T06:01:08;101210.09;;;4.86;100.00
13732;BME280;6937;56.096;12.664;2023-01-29T06:03:34;101195.13;;;4.85;100.00
13732;BME280;6937;56.096;12.664;2023-01-29T06:06:00;101186.25;;;4.86;100.00
13732;BME280;6937;56.096;12.664;2023-01-29T06:08:26;101184.47;;;4.86;100.00
13732;BME280;6937;56.096;12.664;2023-01-29T06:10:51;101181.88;;;4.85;100.00
13732;BME280;6937;56.096;12.664;2023-01-29T06:13:16;101170.88;;;4.74;100.00
13732;BME280;6937;56.096;12.664;2023-01-29T06:15:42;101174.06;;;4.82;100.00
13732;BME280;6937;56.096;12.664;2023-01-29T06:18:07;101173.19;;;4.81;100.00
13732;BME280;6937;56.096;12.664;2023-01-29T06:20:32;101175.25;;;4.75;100.00
13732;BME280;6937;56.096;12.664;2023-01-29T06:22:58;101190.47;;;4.70;100.00
13732;BME280;6937;56.096;12.664;2023-01-29T06:25:23;101202.50;;;4.77;100.00
13732;BME280;6937;56.096;12.664;2023-01-29T06:27:51;101187.50;;;4.77;100.00
13732;BME280;6937;56.096;12.664;2023-01-29T06:30:17;101185.84;;;4.75;100.00
13732;BME280;6937;56.096;12.664;2023-01-29T06:32:42;101196.31;;;4.78;100.00
13732;BME280;6937;56.096;12.664;2023-01-29T06:35:08;101186.75;;;4.74;100.00
13732;BME280;6937;56.096;12.664;2023-01-29T06:37:34;101193.91;;;4.72;100.00
13732;BME280;6937;56.096;12.664;2023-01-29T06:40:00;101193.84;;;4.73;100.00
13732;BME280;6937;56.096;12.664;2023-01-29T06:42:25;101193.28;;;4.65;100.00
13732;BME280;6937;56.096;12.664;2023-01-29T06:44:55;101195.63;;;4.73;100.00
13732;BME280;6937;56.096;12.664;2023-01-29T06:47:22;101202.59;;;4.75;100.00
13732;BME280;6937;56.096;12.664;2023-01-29T06:49:48;101202.66;;;4.74;100.00
13732;BME280;6937;56.096;12.664;2023-01-29T06:52:14;101207.03;;;4.75;100.00
13732;BME280;6937;56.096;12.664;2023-01-29T06:54:39;101217.53;;;4.76;100.00
13732;BME280;6937;56.096;12.664;2023-01-29T06:57:04;101222.84;;;4.76;100.00
13732;BME280;6937;56.096;12.664;2023-01-29T06:59:30;101213.25;;;4.74;100.00
13732;BME280;6937;56.096;12.664;2023-01-29T07:01:55;101231.00;;;4.72;100.00
13732;BME280;6937;56.096;12.664;2023-01-29T07:04:20;101222.31;;;4.68;100.00
13732;BME280;6937;56.096;12.664;2023-01-29T07:06:46;101222.22;;;4.70;100.00
13732;BME280;6937;56.096;12.664;2023-01-29T07:09:12;101238.94;;;4.72;100.00
13732;BME280;6937;56.096;12.664;2023-01-29T07:11:40;101222.34;;;4.67;100.00
13732;BME280;6937;56.096;12.664;2023-01-29T07:14:05;101236.28;;;4.72;100.00
13732;BME280;6937;56.096;12.664;2023-01-29T07:16:31;101247.53;;;4.77;100.00
13732;BME280;6937;56.096;12.664;2023-01-29T07:18:57;101244.88;;;4.77;100.00
13732;BME280;6937;56.096;12.664;2023-01-29T07:21:22;101233.50;;;4.75;100.00
13732;BME280;6937;56.096;12.664;2023-01-29T07:23:48;101245.75;;;4.77;100.00
13732;BME280;6937;56.096;12.664;2023-01-29T07:26:13;101239.66;;;4.75;100.00
13732;BME280;6937;56.096;12.664;2023-01-29T07:28:39;101255.47;;;4.77;100.00
13732;BME280;6937;56.096;12.664;2023-01-29T07:31:05;101239.03;;;4.69;100.00
13732;BME280;6937;56.096;12.664;2023-01-29T07:33:31;101266.19;;;4.74;100.00
13732;BME280;6937;56.096;12.664;2023-01-29T07:35:56;101277.59;;;4.76;100.00
13732;BME280;6937;56.096;12.664;2023-01-29T07:38:22;101256.66;;;4.70;100.00
13732;BME280;6937;56.096;12.664;2023-01-29T07:40:47;101262.63;;;4.75;100.00
13732;BME280;6937;56.096;12.664;2023-01-29T07:43:13;101257.34;;;4.75;100.00
13732;BME280;6937;56.096;12.664;2023-01-29T07:45:39;101252.91;;;4.75;100.00
13732;BME280;6937;56.096;12.664;2023-01-29T07:48:06;101248.41;;;4.77;100.00
13732;BME280;6937;56.096;12.664;2023-01-29T07:50:33;101257.25;;;4.76;100.00
13732;BME280;6937;56.096;12.664;2023-01-29T07:52:58;101250.31;;;4.74;100.00
13732;BME280;6937;56.096;12.664;2023-01-29T07:55:24;101255.34;;;4.80;100.00
13732;BME280;6937;56.096;12.664;2023-01-29T07:58:01;101249.22;;;4.79;100.00
13732;BME280;6937;56.096;12.664;2023-01-29T08:00:27;101253.63;;;4.79;100.00
13732;BME280;6937;56.096;12.664;2023-01-29T08:02:53;101244.69;;;4.81;100.00
13732;BME280;6937;56.096;12.664;2023-01-29T08:05:18;101244.69;;;4.81;100.00
13732;BME280;6937;56.096;12.664;2023-01-29T08:07:44;101227.16;;;4.79;100.00
13732;BME280;6937;56.096;12.664;2023-01-29T08:10:10;101218.25;;;4.80;100.00
13732;BME280;6937;56.096;12.664;2023-01-29T08:12:35;101204.94;;;4.83;100.00
13732;BME280;6937;56.096;12.664;2023-01-29T08:15:01;101209.91;;;4.91;100.00
13732;BME280;6937;56.096;12.664;2023-01-29T08:17:26;101200.91;;;4.95;100.00
13732;BME280;6937;56.096;12.664;2023-01-29T08:19:52;101203.56;;;4.95;100.00
13732;BME280;6937;56.096;12.664;2023-01-29T08:22:17;101187.66;;;4.95;100.00
13732;BME280;6937;56.096;12.664;2023-01-29T08:24:43;101196.34;;;4.98;100.00
13732;BME280;6937;56.096;12.664;2023-01-29T08:27:08;101186.53;;;5.00;100.00
13732;BME280;6937;56.096;12.664;2023-01-29T08:29:34;101169.19;;;4.93;100.00
13732;BME280;6937;56.096;12.664;2023-01-29T08:31:59;101187.25;;;5.04;100.00
13732;BME280;6937;56.096;12.664;2023-01-29T08:34:25;101166.94;;;5.04;100.00
13732;BME280;6937;56.096;12.664;2023-01-29T08:36:51;101160.72;;;5.05;100.00
13732;BME280;6937;56.096;12.664;2023-01-29T08:39:17;101154.56;;;5.05;100.00
13732;BME280;6937;56.096;12.664;2023-01-29T08:41:43;101141.50;;;5.00;100.00
13732;BME280;6937;56.096;12.664;2023-01-29T08:44:08;101155.13;;;5.11;100.00
13732;BME280;6937;56.096;12.664;2023-01-29T08:46:33;101163.91;;;5.13;100.00
13732;BME280;6937;56.096;12.664;2023-01-29T08:48:59;101146.19;;;5.14;100.00
13732;BME280;6937;56.096;12.664;2023-01-29T08:51:25;101140.97;;;5.12;100.00
13732;BME280;6937;56.096;12.664;2023-01-29T08:53:51;101114.88;;;5.03;100.00
13732;BME280;6937;56.096;12.664;2023-01-29T08:56:16;101128.59;;;5.13;100.00
13732;BME280;6937;56.096;12.664;2023-01-29T08:58:42;101128.50;;;5.14;100.00
13732;BME280;6937;56.096;12.664;2023-01-29T09:01:10;101124.06;;;5.15;100.00
13732;BME280;6937;56.096;12.664;2023-01-29T09:03:35;101111.97;;;5.09;100.00
13732;BME280;6937;56.096;12.664;2023-01-29T09:06:01;101119.50;;;5.18;100.00
13732;BME280;6937;56.096;12.664;2023-01-29T09:08:27;101115.91;;;5.19;100.00
13732;BME280;6937;56.096;12.664;2023-01-29T09:10:53;101114.06;;;5.21;100.00
13732;BME280;6937;56.096;12.664;2023-01-29T09:13:18;101113.56;;;5.13;100.00
13732;BME280;6937;56.096;12.664;2023-01-29T09:15:43;101119.34;;;5.21;100.00
13732;BME280;6937;56.096;12.664;2023-01-29T09:18:09;101104.59;;;5.16;100.00
13732;BME280;6937;56.096;12.664;2023-01-29T09:20:34;101120.22;;;5.22;100.00
13732;BME280;6937;56.096;12.664;2023-01-29T09:23:04;101112.22;;;5.23;100.00
13732;BME280;6937;56.096;12.664;2023-01-29T09:25:30;101113.22;;;5.21;100.00
13732;BME280;6937;56.096;12.664;2023-01-29T09:27:55;101107.97;;;5.19;100.00
13732;BME280;6937;56.096;12.664;2023-01-29T09:30:21;101109.97;;;5.14;100.00
13732;BME280;6937;56.096;12.664;2023-01-29T09:32:46;101120.44;;;5.17;100.00
13732;BME280;6937;56.096;12.664;2023-01-29T09:35:11;101117.13;;;5.12;100.00
13732;BME280;6937;56.096;12.664;2023-01-29T09:37:37;101118.78;;;5.15;100.00
13732;BME280;6937;56.096;12.664;2023-01-29T09:40:02;101100.56;;;5.07;100.00
13732;BME280;6937;56.096;12.664;2023-01-29T09:47:26;101109.09;;;5.14;100.00
13732;BME280;6937;56.096;12.664;2023-01-29T09:49:58;101102.72;;;5.18;100.00
13732;BME280;6937;56.096;12.664;2023-01-29T09:52:29;101108.75;;;5.21;100.00
13732;BME280;6937;56.096;12.664;2023-01-29T09:55:03;101110.81;;;5.15;100.00
13732;BME280;6937;56.096;12.664;2023-01-29T09:57:41;101113.06;;;5.24;100.00
13732;BME280;6937;56.096;12.664;2023-01-29T10:00:17;101118.22;;;5.27;100.00
13732;BME280;6937;56.096;12.664;2023-01-29T10:03:07;101112.94;;;5.27;100.00
13732;BME280;6937;56.096;12.664;2023-01-29T10:06:01;101118.44;;;5.22;100.00
13732;BME280;6937;56.096;12.664;2023-01-29T10:08:47;101123.59;;;5.25;100.00
13732;BME280;6937;56.096;12.664;2023-01-29T10:11:29;101120.31;;;5.20;100.00
13732;BME280;6937;56.096;12.664;2023-01-29T10:14:22;101125.50;;;5.22;100.00
13732;BME280;6937;56.096;12.664;2023-01-29T10:24:51;101107.69;;;5.25;100.00
13732;BME280;6937;56.096;12.664;2023-01-29T10:27:18;101099.53;;;5.30;100.00
13732;BME280;6937;56.096;12.664;2023-01-29T10:29:46;101100.41;;;5.30;100.00
13732;BME280;6937;56.096;12.664;2023-01-29T10:32:22;101082.88;;;5.28;100.00
13732;BME280;6937;56.096;12.664;2023-01-29T10:34:59;101094.09;;;5.33;100.00
13732;BME280;6937;56.096;12.664;2023-01-29T10:37:39;101095.88;;;5.32;100.00
13732;BME280;6937;56.096;12.664;2023-01-29T10:40:55;101099.34;;;5.34;100.00
13732;BME280;6937;56.096;12.664;2023-01-29T10:46:09;101097.41;;;5.38;100.00
13732;BME280;6937;56.096;12.664;2023-01-29T11:01:57;101075.28;;;5.58;100.00
13732;BME280;6937;56.096;12.664;2023-01-29T11:04:25;101061.66;;;5.65;100.00
13732;BME280;6937;56.096;12.664;2023-01-29T11:06:51;101065.97;;;5.68;100.00
13732;BME280;6937;56.096;12.664;2023-01-29T11:09:27;101062.19;;;5.73;100.00
13732;BME280;6937;56.096;12.664;2023-01-29T11:12:05;101063.72;;;5.77;100.00
13732;BME280;6937;56.096;12.664;2023-01-29T11:17:14;101056.00;;;5.73;100.00
13732;BME280;6937;56.096;12.664;2023-01-29T11:19:43;101051.41;;;5.76;100.00
13732;BME280;6937;56.096;12.664;2023-01-29T11:22:23;101037.06;;;5.80;100.00
13732;BME280;6937;56.096;12.664;2023-01-29T11:25:18;101053.56;;;5.87;100.00
13732;BME280;6937;56.096;12.664;2023-01-29T11:27:58;101029.81;;;5.84;100.00
13732;BME280;6937;56.096;12.664;2023-01-29T11:30:31;101024.78;;;5.97;100.00
13732;BME280;6937;56.096;12.664;2023-01-29T11:35:29;100994.75;;;5.96;100.00
13732;BME280;6937;56.096;12.664;2023-01-29T11:38:16;100997.88;;;6.04;100.00
13732;BME280;6937;56.096;12.664;2023-01-29T11:40:43;100990.78;;;6.05;100.00
13732;BME280;6937;56.096;12.664;2023-01-29T11:43:28;101000.41;;;6.07;100.00
13732;BME280;6937;56.096;12.664;2023-01-29T11:46:00;100982.84;;;6.05;100.00
13732;BME280;6937;56.096;12.664;2023-01-29T11:48:40;100982.78;;;6.06;100.00
13732;BME280;6937;56.096;12.664;2023-01-29T11:51:10;100976.53;;;6.07;100.00
13732;BME280;6937;56.096;12.664;2023-01-29T11:53:39;100953.88;;;6.00;100.00
13732;BME280;6937;56.096;12.664;2023-01-29T11:56:17;100952.25;;;5.98;100.00
13732;BME280;6937;56.096;12.664;2023-01-29T11:58:45;100943.19;;;6.02;100.00
13732;BME280;6937;56.096;12.664;2023-01-29T12:01:14;100934.59;;;5.97;100.00
13732;BME280;6937;56.096;12.664;2023-01-29T12:03:46;100954.66;;;6.02;100.00
13732;BME280;6937;56.096;12.664;2023-01-29T12:06:26;100947.75;;;6.00;100.00
13732;BME280;6937;56.096;12.664;2023-01-29T12:09:00;100938.91;;;5.99;100.00
13732;BME280;6937;56.096;12.664;2023-01-29T12:11:31;100924.38;;;5.89;100.00
13732;BME280;6937;56.096;12.664;2023-01-29T12:13:59;100927.13;;;5.88;100.00
13732;BME280;6937;56.096;12.664;2023-01-29T12:19:30;100912.88;;;5.71;100.00
13732;BME280;6937;56.096;12.664;2023-01-29T12:22:16;100912.34;;;5.65;100.00
13732;BME280;6937;56.096;12.664;2023-01-29T12:24:57;100909.97;;;5.59;100.00
13732;BME280;6937;56.096;12.664;2023-01-29T12:27:45;100906.38;;;5.43;100.00
13732;BME280;6937;56.096;12.664;2023-01-29T12:30:29;100903.88;;;5.40;100.00
13732;BME280;6937;56.096;12.664;2023-01-29T12:32:58;100877.44;;;5.38;100.00
13732;BME280;6937;56.096;12.664;2023-01-29T12:35:32;100868.22;;;5.28;100.00
13732;BME280;6937;56.096;12.664;2023-01-29T12:38:20;100876.25;;;5.26;100.00
13732;BME280;6937;56.096;12.664;2023-01-29T12:40:50;100856.78;;;5.27;100.00
13732;BME280;6937;56.096;12.664;2023-01-29T12:43:25;100844.44;;;5.26;100.00
13732;BME280;6937;56.096;12.664;2023-01-29T12:45:54;100819.03;;;5.22;100.00
13732;BME280;6937;56.096;12.664;2023-01-29T12:48:30;100820.22;;;5.34;100.00
13732;BME280;6937;56.096;12.664;2023-01-29T12:51:05;100822.66;;;5.39;100.00
13732;BME280;6937;56.096;12.664;2023-01-29T12:53:49;100815.47;;;5.41;100.00
13732;BME280;6937;56.096;12.664;2023-01-29T12:56:48;100804.69;;;5.44;100.00
13732;BME280;6937;56.096;12.664;2023-01-29T12:59:23;100818.59;;;5.49;100.00
13732;BME280;6937;56.096;12.664;2023-01-29T13:01:54;100803.06;;;5.41;100.00
13732;BME280;6937;56.096;12.664;2023-01-29T13:04:36;100813.28;;;5.49;100.00
13732;BME280;6937;56.096;12.664;2023-01-29T13:07:16;100805.66;;;5.43;100.00
13732;BME280;6937;56.096;12.664;2023-01-29T13:09:48;100797.47;;;5.47;100.00
13732;BME280;6937;56.096;12.664;2023-01-29T13:12:17;100792.88;;;5.51;100.00
13732;BME280;6937;56.096;12.664;2023-01-29T13:14:58;100791.00;;;5.53;100.00
13732;BME280;6937;56.096;12.664;2023-01-29T13:20:07;100769.94;;;5.50;100.00
13732;BME280;6937;56.096;12.664;2023-01-29T13:22:37;100783.56;;;5.59;100.00
13732;BME280;6937;56.096;12.664;2023-01-29T13:25:04;100783.34;;;5.64;100.00
13732;BME280;6937;56.096;12.664;2023-01-29T13:27:32;100764.25;;;5.57;100.00
13732;BME280;6937;56.096;12.664;2023-01-29T13:29:58;100773.78;;;5.61;100.00
13732;BME280;6937;56.096;12.664;2023-01-29T13:32:29;100759.59;;;5.62;100.00
13732;BME280;6937;56.096;12.664;2023-01-29T13:35:11;100754.72;;;5.70;100.00
13732;BME280;6937;56.096;12.664;2023-01-29T13:37:55;100743.75;;;5.61;100.00
13732;BME280;6937;56.096;12.664;2023-01-29T13:40:26;100731.13;;;5.66;100.00
13732;BME280;6937;56.096;12.664;2023-01-29T13:42:53;100752.00;;;5.72;100.00
13732;BME280;6937;56.096;12.664;2023-01-29T13:45:27;100736.94;;;5.72;100.00
13732;BME280;6937;56.096;12.664;2023-01-29T13:50:52;100717.69;;;5.69;100.00
13732;BME280;6937;56.096;12.664;2023-01-29T13:53:35;100717.53;;;5.72;100.00
13732;BME280;6937;56.096;12.664;2023-01-29T13:56:41;100713.66;;;5.77;100.00
13732;BME280;6937;56.096;12.664;2023-01-29T13:59:21;100706.50;;;5.79;100.00
13732;BME280;6937;56.096;12.664;2023-01-29T14:06:51;100718.75;;;5.82;100.00
13732;BME280;6937;56.096;12.664;2023-01-29T14:09:58;100712.50;;;5.83;100.00
13732;BME280;6937;56.096;12.664;2023-01-29T14:17:17;100717.13;;;5.79;100.00
13732;BME280;6937;56.096;12.664;2023-01-29T14:19:51;100716.50;;;5.74;100.00
13732;BME280;6937;56.096;12.664;2023-01-29T14:22:20;100715.63;;;5.74;100.00
13732;BME280;6937;56.096;12.664;2023-01-29T14:24:46;100707.84;;;5.71;100.00
13732;BME280;6937;56.096;12.664;2023-01-29T14:27:20;100696.66;;;5.66;100.00
13732;BME280;6937;56.096;12.664;2023-01-29T14:29:47;100688.69;;;5.66;100.00
13732;BME280;6937;56.096;12.664;2023-01-29T14:32:22;100675.50;;;5.64;100.00